Jackson Junction, Iowa
Current Conditions -  °F | °C
As of 6:55 AM on Wednesday 22 Oct 2014 (Local Time) from KDEH Reporting Station
Clear Clear  
Wind Chill: 31°   Ceiling: Unl
Heat Index: 36°   Visibility: 8mi
Dew Point: 36°   Wind: 6mph
Humidity: 100%   Direction: 140°SE
Pressure: 30.29"   Gusts: NA
Location:  43.0382°N, 92.0219°W
Report Text: KDEH 221155Z AUTO 14005KT 8SM CLR 02/02 A3029 RMK AO2
Loading
Personal Weather Stations






























Interactive Weather Map New forecast layout! Learn more

10-Day Weather Forecast

Advertisements
Track Severe Weather on mobile